createdAt,value
2023-03-17T00:01:57.312Z,5.60
2023-03-17T00:04:27.447Z,5.50
2023-03-17T00:06:56.843Z,5.70
2023-03-17T00:09:25.787Z,4.70
2023-03-17T00:11:54.725Z,5.00
2023-03-17T00:14:22.886Z,5.30
2023-03-17T00:16:52.767Z,5.00
2023-03-17T00:19:32.423Z,5.90
2023-03-17T00:22:02.505Z,4.70
2023-03-17T00:24:31.128Z,4.90
2023-03-17T00:26:59.758Z,4.70
2023-03-17T00:29:28.093Z,4.50
2023-03-17T00:31:57.712Z,4.30
2023-03-17T00:34:25.799Z,4.60
2023-03-17T00:36:54.535Z,4.30
2023-03-17T00:39:25.563Z,4.30
2023-03-17T00:41:55.821Z,4.00
2023-03-17T00:44:24.356Z,4.20
2023-03-17T00:46:54.543Z,3.70
2023-03-17T00:49:25.148Z,4.30
2023-03-17T00:51:53.315Z,4.00
2023-03-17T00:54:23.429Z,4.50
2023-03-17T00:56:52.690Z,3.70
2023-03-17T00:59:26.444Z,4.30
2023-03-17T01:01:54.365Z,4.20
2023-03-17T01:04:24.014Z,4.60
2023-03-17T01:06:53.099Z,4.20
2023-03-17T01:09:26.038Z,4.50
2023-03-17T01:11:55.590Z,4.30
2023-03-17T01:14:24.951Z,4.60
2023-03-17T01:16:53.155Z,4.60
2023-03-17T01:19:21.314Z,4.70
2023-03-17T01:21:49.361Z,3.90
2023-03-17T01:24:17.837Z,4.10
2023-03-17T01:26:45.858Z,4.20
2023-03-17T01:29:14.923Z,4.60
2023-03-17T01:31:42.786Z,4.60
2023-03-17T01:34:11.674Z,4.40
2023-03-17T01:36:40.716Z,4.80
2023-03-17T01:39:09.424Z,4.60
2023-03-17T01:41:37.692Z,5.10
2023-03-17T01:44:05.714Z,4.40
2023-03-17T01:46:35.956Z,4.70
2023-03-17T01:49:22.739Z,5.00
2023-03-17T01:51:53.611Z,4.50
2023-03-17T01:54:28.362Z,4.80
2023-03-17T01:57:03.875Z,4.30
2023-03-17T01:59:36.595Z,4.20
2023-03-17T02:02:10.910Z,4.10
2023-03-17T02:04:40.510Z,4.10
2023-03-17T02:07:10.242Z,5.10
2023-03-17T02:09:40.695Z,5.30
2023-03-17T02:12:10.330Z,5.80
2023-03-17T02:14:38.180Z,6.30
2023-03-17T02:17:07.425Z,6.00
2023-03-17T02:19:35.983Z,6.70
2023-03-17T02:22:03.996Z,6.80
2023-03-17T02:24:39.158Z,7.80
2023-03-17T02:27:13.572Z,7.30
2023-03-17T02:29:42.317Z,7.10
2023-03-17T02:32:10.431Z,7.30
2023-03-17T02:34:38.496Z,7.80
2023-03-17T02:37:07.997Z,6.70
2023-03-17T02:39:36.633Z,7.30
2023-03-17T02:42:06.055Z,7.80
2023-03-17T02:44:35.929Z,7.70
2023-03-17T02:47:04.741Z,6.80
2023-03-17T02:49:33.488Z,7.60
2023-03-17T02:52:01.750Z,6.80
2023-03-17T02:54:29.632Z,7.50
2023-03-17T02:56:57.495Z,7.70
2023-03-17T02:59:25.945Z,7.90
2023-03-17T03:01:54.887Z,8.60
2023-03-17T03:04:24.328Z,9.70
2023-03-17T03:06:52.514Z,9.80
2023-03-17T03:09:21.157Z,9.60
2023-03-17T03:11:49.097Z,11.20
2023-03-17T03:14:17.064Z,9.70
2023-03-17T03:16:45.180Z,9.70
2023-03-17T03:19:13.262Z,8.90
2023-03-17T03:21:41.530Z,8.50
2023-03-17T03:24:11.018Z,7.20
2023-03-17T03:26:38.993Z,6.90
2023-03-17T03:29:06.904Z,6.10
2023-03-17T03:31:35.230Z,9.00
2023-03-17T03:34:03.241Z,9.70
2023-03-17T03:36:31.207Z,9.80
2023-03-17T03:39:00.993Z,10.10
2023-03-17T03:41:29.233Z,10.80
2023-03-17T03:43:57.430Z,10.30
2023-03-17T03:46:26.787Z,10.20
2023-03-17T03:48:55.546Z,11.10
2023-03-17T03:51:23.480Z,9.70
2023-03-17T03:53:51.402Z,8.80
2023-03-17T03:56:19.313Z,10.60
2023-03-17T03:58:47.664Z,10.80
2023-03-17T04:01:15.465Z,10.30
2023-03-17T04:03:43.791Z,10.50
2023-03-17T04:06:11.887Z,10.30
2023-03-17T04:08:39.829Z,13.90
2023-03-17T04:11:08.833Z,21.60
2023-03-17T04:13:36.677Z,19.70
2023-03-17T04:16:05.048Z,15.90
2023-03-17T04:18:33.108Z,14.80
2023-03-17T04:21:01.751Z,15.00
2023-03-17T04:23:31.566Z,13.40
2023-03-17T04:25:59.711Z,13.10
2023-03-17T04:28:27.727Z,13.10
2023-03-17T04:30:56.292Z,13.80
2023-03-17T04:33:24.237Z,13.20
2023-03-17T04:35:52.438Z,12.70
2023-03-17T04:38:20.727Z,14.70
2023-03-17T04:40:50.621Z,16.20
2023-03-17T04:43:18.665Z,16.20
2023-03-17T04:45:46.850Z,16.60
2023-03-17T04:48:14.814Z,22.30
2023-03-17T04:50:42.856Z,18.30
2023-03-17T04:53:10.703Z,18.80
2023-03-17T04:55:38.614Z,17.60
2023-03-17T04:58:06.912Z,16.60
2023-03-17T05:00:38.831Z,17.40
2023-03-17T05:03:20.013Z,19.40
2023-03-17T05:05:54.094Z,21.30
2023-03-17T05:08:22.030Z,20.60
2023-03-17T05:10:51.422Z,19.90
2023-03-17T05:13:19.309Z,47.30
2023-03-17T05:15:48.172Z,40.70
2023-03-17T05:18:16.894Z,28.50
2023-03-17T05:20:45.615Z,21.00
2023-03-17T05:23:13.752Z,20.10
2023-03-17T05:25:42.158Z,19.40
2023-03-17T05:28:10.536Z,19.40
2023-03-17T05:30:38.561Z,16.90
2023-03-17T05:33:06.830Z,15.80
2023-03-17T05:35:35.037Z,16.50
2023-03-17T05:38:03.517Z,15.80
2023-03-17T05:40:32.802Z,15.80
2023-03-17T05:43:02.122Z,18.90
2023-03-17T05:45:30.959Z,19.20
2023-03-17T05:48:06.602Z,16.90
2023-03-17T05:50:35.978Z,15.90
2023-03-17T05:53:04.066Z,14.00
2023-03-17T05:55:32.163Z,12.80
2023-03-17T05:58:01.065Z,12.60
2023-03-17T06:00:29.860Z,12.90
2023-03-17T06:02:58.301Z,13.40
2023-03-17T06:05:26.579Z,16.00
2023-03-17T06:07:56.605Z,17.50
2023-03-17T06:10:25.539Z,18.90
2023-03-17T06:12:53.560Z,20.80
2023-03-17T06:15:21.775Z,22.50
2023-03-17T06:17:50.053Z,23.50
2023-03-17T06:20:22.335Z,19.60
2023-03-17T06:23:03.773Z,18.30
2023-03-17T06:25:34.799Z,19.40
2023-03-17T06:28:06.422Z,20.70
2023-03-17T06:30:38.088Z,19.60
2023-03-17T06:33:08.277Z,22.50
2023-03-17T06:35:36.703Z,25.60
2023-03-17T06:38:05.276Z,25.00
2023-03-17T06:40:34.170Z,23.70
2023-03-17T06:43:03.051Z,21.70
2023-03-17T06:45:33.208Z,16.90
2023-03-17T06:48:02.477Z,15.50
2023-03-17T06:50:30.968Z,16.10
2023-03-17T06:52:59.019Z,18.30
2023-03-17T06:55:27.523Z,16.90
2023-03-17T06:57:55.419Z,17.10
2023-03-17T07:00:23.904Z,17.00
2023-03-17T07:02:52.700Z,14.50
2023-03-17T07:05:20.638Z,13.70
2023-03-17T07:07:51.527Z,11.80
2023-03-17T07:10:19.548Z,9.50
2023-03-17T07:12:47.925Z,9.70
2023-03-17T07:15:17.321Z,11.00
2023-03-17T07:17:48.116Z,10.30
2023-03-17T07:20:16.678Z,9.60
2023-03-17T07:22:44.673Z,5.90
2023-03-17T07:25:12.780Z,4.00
2023-03-17T07:27:40.894Z,3.90
2023-03-17T07:30:09.461Z,3.50
2023-03-17T07:32:37.708Z,3.80
2023-03-17T07:35:08.246Z,4.70
2023-03-17T07:37:36.473Z,4.40
2023-03-17T07:40:06.322Z,3.70
2023-03-17T07:42:34.685Z,4.40
2023-03-17T07:45:05.207Z,3.20
2023-03-17T07:47:33.335Z,3.20
2023-03-17T07:50:01.326Z,3.60
2023-03-17T07:52:29.550Z,3.50
2023-03-17T07:54:58.545Z,3.50
2023-03-17T07:57:28.782Z,3.60
2023-03-17T07:59:56.749Z,2.60
2023-03-17T08:02:25.326Z,2.80
2023-03-17T08:04:54.206Z,2.90
2023-03-17T08:07:22.265Z,4.10
2023-03-17T08:09:50.454Z,3.80
2023-03-17T08:12:18.592Z,3.40
2023-03-17T08:14:46.661Z,3.40
2023-03-17T08:17:14.755Z,2.90
2023-03-17T08:19:44.041Z,3.10
2023-03-17T08:22:13.292Z,3.20
2023-03-17T08:24:43.100Z,3.10
2023-03-17T08:27:11.860Z,3.10
2023-03-17T08:29:39.993Z,3.50
2023-03-17T08:32:08.986Z,3.20
2023-03-17T08:34:37.600Z,2.60
2023-03-17T08:37:07.959Z,3.10
2023-03-17T08:39:37.933Z,2.80
2023-03-17T08:42:06.300Z,2.70
2023-03-17T08:44:35.224Z,3.10
2023-03-17T08:47:03.850Z,2.90
2023-03-17T08:49:35.086Z,4.70
2023-03-17T08:52:03.570Z,3.60
2023-03-17T08:54:31.489Z,2.90
2023-03-17T08:56:59.392Z,3.10
2023-03-17T08:59:27.694Z,3.40
2023-03-17T09:01:57.962Z,4.00
2023-03-17T09:04:26.685Z,4.00
2023-03-17T09:07:03.742Z,3.50
2023-03-17T09:09:35.481Z,3.50
2023-03-17T09:12:07.044Z,3.00
2023-03-17T09:14:43.379Z,3.00
2023-03-17T09:17:14.587Z,3.30
2023-03-17T09:19:43.873Z,3.50
2023-03-17T09:22:18.799Z,3.20
2023-03-17T09:24:49.400Z,2.70
2023-03-17T09:27:17.482Z,2.90
2023-03-17T09:29:45.673Z,2.80
2023-03-17T09:32:14.033Z,3.00
2023-03-17T09:34:42.094Z,2.40
2023-03-17T09:37:10.412Z,2.80
2023-03-17T09:39:38.461Z,2.50
2023-03-17T09:42:36.472Z,2.90
2023-03-17T09:45:17.504Z,2.80
2023-03-17T09:50:32.290Z,2.30
2023-03-17T09:53:05.122Z,2.20
2023-03-17T09:55:35.933Z,2.10
2023-03-17T09:58:04.426Z,2.50
2023-03-17T10:00:33.010Z,2.50
2023-03-17T10:03:02.092Z,2.40
2023-03-17T10:05:34.992Z,2.40
2023-03-17T10:08:15.647Z,2.00
2023-03-17T10:10:55.100Z,2.20
2023-03-17T10:13:42.429Z,2.20
2023-03-17T10:16:18.620Z,2.30
2023-03-17T10:18:55.313Z,2.20
2023-03-17T10:21:28.914Z,2.20
2023-03-17T10:24:00.318Z,2.10
2023-03-17T10:26:34.723Z,2.20
2023-03-17T10:29:06.079Z,1.60
2023-03-17T10:31:35.751Z,2.00
2023-03-17T10:34:16.279Z,2.00
2023-03-17T10:37:07.292Z,2.50
2023-03-17T10:42:22.508Z,2.40
2023-03-17T10:45:13.610Z,2.40
2023-03-17T10:47:47.201Z,2.60
2023-03-17T10:50:15.533Z,2.60
2023-03-17T10:52:47.569Z,2.10
2023-03-17T10:55:20.285Z,2.40
2023-03-17T10:57:57.418Z,2.30
2023-03-17T11:00:29.428Z,2.40
2023-03-17T11:02:59.559Z,2.30
2023-03-17T11:05:29.821Z,2.10
2023-03-17T11:08:07.321Z,2.10
2023-03-17T11:10:40.716Z,2.40
2023-03-17T11:13:09.515Z,2.10
2023-03-17T11:15:46.290Z,2.20
2023-03-17T11:18:28.424Z,2.50
2023-03-17T11:21:09.759Z,2.20
2023-03-17T11:23:52.614Z,2.10
2023-03-17T11:26:41.870Z,2.70
2023-03-17T11:29:19.761Z,3.00
2023-03-17T11:31:56.700Z,3.80
2023-03-17T11:34:24.608Z,2.90
2023-03-17T11:37:13.988Z,3.10
2023-03-17T11:39:50.781Z,3.10
2023-03-17T11:42:36.104Z,3.40
2023-03-17T11:45:12.957Z,3.50
2023-03-17T11:48:06.112Z,3.40
2023-03-17T11:50:39.461Z,3.20
2023-03-17T11:53:43.520Z,3.00
2023-03-17T11:56:33.306Z,3.00
2023-03-17T11:59:14.095Z,3.70
2023-03-17T12:02:21.363Z,2.90
2023-03-17T12:05:05.133Z,2.80
2023-03-17T12:07:48.245Z,3.50
2023-03-17T12:10:49.515Z,3.20
2023-03-17T12:16:04.346Z,3.40
2023-03-17T12:18:38.450Z,3.30
2023-03-17T12:21:20.861Z,3.60
2023-03-17T12:23:52.439Z,3.60
2023-03-17T12:26:37.203Z,3.40
2023-03-17T12:29:43.182Z,3.30
2023-03-17T12:32:18.480Z,3.20
2023-03-17T12:35:02.463Z,2.90
2023-03-17T12:37:30.776Z,2.60
2023-03-17T12:40:15.056Z,3.40
2023-03-17T12:42:52.525Z,3.20
2023-03-17T12:45:30.614Z,2.60
2023-03-17T12:48:04.449Z,3.40
2023-03-17T12:50:35.369Z,3.10
2023-03-17T12:55:42.552Z,2.60
2023-03-17T12:58:32.517Z,3.00
2023-03-17T13:01:08.983Z,3.50
2023-03-17T13:03:45.793Z,2.60
2023-03-17T13:06:21.372Z,2.90
2023-03-17T13:08:52.606Z,2.40
2023-03-17T13:11:47.764Z,2.60
2023-03-17T13:14:27.106Z,2.90
2023-03-17T13:17:18.756Z,3.30
2023-03-17T13:20:08.422Z,3.30
2023-03-17T13:22:42.116Z,3.00
2023-03-17T13:25:27.499Z,2.40
2023-03-17T13:28:20.783Z,2.90
2023-03-17T13:30:54.907Z,3.10
2023-03-17T13:33:31.131Z,3.00
2023-03-17T13:36:10.123Z,3.10
2023-03-17T13:39:19.276Z,3.70
2023-03-17T13:42:19.822Z,3.00
2023-03-17T13:45:09.634Z,3.50
2023-03-17T13:47:42.581Z,3.50
2023-03-17T13:50:17.566Z,3.30
2023-03-17T13:52:50.083Z,2.80
2023-03-17T13:55:18.149Z,2.80
2023-03-17T13:58:16.705Z,3.50
2023-03-17T14:00:48.997Z,3.20
2023-03-17T14:03:29.261Z,4.30
2023-03-17T14:06:01.279Z,4.00
2023-03-17T14:08:35.688Z,4.40
2023-03-17T14:11:09.014Z,3.80
2023-03-17T14:13:59.993Z,3.40
2023-03-17T14:19:09.541Z,3.30
2023-03-17T14:21:37.603Z,3.70
2023-03-17T14:24:19.878Z,3.80
2023-03-17T14:26:48.888Z,4.30
2023-03-17T14:29:21.436Z,4.10
2023-03-17T14:32:00.378Z,3.40
2023-03-17T14:34:28.440Z,4.00
2023-03-17T14:37:01.605Z,3.60
2023-03-17T14:39:29.729Z,4.00
2023-03-17T14:42:05.852Z,3.70
2023-03-17T14:44:38.954Z,3.70
2023-03-17T14:47:21.011Z,2.80
2023-03-17T14:49:51.273Z,3.20
2023-03-17T14:52:27.931Z,3.50
2023-03-17T14:54:59.287Z,4.20
2023-03-17T14:57:31.818Z,4.10
2023-03-17T15:00:22.854Z,4.00
2023-03-17T15:02:58.447Z,3.60
2023-03-17T15:05:39.878Z,3.40
2023-03-17T15:08:36.572Z,3.80
2023-03-17T15:11:06.372Z,3.70
2023-03-17T15:13:37.616Z,2.90
2023-03-17T15:16:14.969Z,4.20
2023-03-17T15:18:43.815Z,3.30
2023-03-17T15:21:27.397Z,3.60
2023-03-17T15:23:55.553Z,3.90
2023-03-17T15:26:31.558Z,3.60
2023-03-17T15:29:00.560Z,4.10
2023-03-17T15:31:30.309Z,4.00
2023-03-17T15:33:58.547Z,3.50
2023-03-17T15:36:32.685Z,3.30
2023-03-17T15:39:02.656Z,3.60
2023-03-17T15:41:30.589Z,3.70
2023-03-17T15:43:58.644Z,3.50
2023-03-17T15:46:31.164Z,3.20
2023-03-17T15:49:00.052Z,3.20
2023-03-17T15:51:28.158Z,3.80
2023-03-17T15:53:56.142Z,4.00
2023-03-17T15:56:24.278Z,3.50
2023-03-17T15:58:52.669Z,3.20
2023-03-17T16:01:21.381Z,4.30
2023-03-17T16:03:50.229Z,4.60
2023-03-17T16:06:21.798Z,5.10
2023-03-17T16:08:50.346Z,5.30
2023-03-17T16:11:28.482Z,6.20
2023-03-17T16:13:59.907Z,7.80
2023-03-17T16:16:34.058Z,8.50
2023-03-17T16:19:03.031Z,10.00
2023-03-17T16:21:32.375Z,9.90
2023-03-17T16:24:00.596Z,11.50
2023-03-17T16:26:28.759Z,11.80
2023-03-17T16:28:57.388Z,12.20
2023-03-17T16:31:31.807Z,13.70
2023-03-17T16:34:00.127Z,13.70
2023-03-17T16:36:28.350Z,15.20
2023-03-17T16:38:56.243Z,19.30
2023-03-17T16:41:27.826Z,18.50
2023-03-17T16:44:01.536Z,18.50
2023-03-17T16:46:35.072Z,17.90
2023-03-17T16:49:04.623Z,17.60
2023-03-17T16:51:32.826Z,16.40
2023-03-17T16:54:00.805Z,13.40
2023-03-17T16:56:28.821Z,14.40
2023-03-17T16:58:57.546Z,16.70
2023-03-17T17:01:28.025Z,21.10
2023-03-17T17:03:57.112Z,24.10
2023-03-17T17:06:25.337Z,22.20
2023-03-17T17:08:53.407Z,21.60
2023-03-17T17:11:21.506Z,19.20
2023-03-17T17:13:49.785Z,16.40
2023-03-17T17:16:27.123Z,13.70
2023-03-17T17:18:56.038Z,14.10
2023-03-17T17:21:24.045Z,16.70
2023-03-17T17:23:53.225Z,22.90
2023-03-17T17:26:22.375Z,28.60
2023-03-17T17:28:50.561Z,20.30
2023-03-17T17:31:18.625Z,15.00
2023-03-17T17:33:46.897Z,12.50
2023-03-17T17:36:17.046Z,11.00
2023-03-17T17:38:45.596Z,11.20
2023-03-17T17:41:14.352Z,9.80
2023-03-17T17:43:42.520Z,9.30
2023-03-17T17:46:17.933Z,8.10
2023-03-17T17:48:46.325Z,8.00
2023-03-17T17:51:14.510Z,7.90
2023-03-17T17:53:42.428Z,7.40
2023-03-17T17:56:14.864Z,8.30
2023-03-17T17:58:43.777Z,8.00
2023-03-17T18:01:14.334Z,7.50
2023-03-17T18:03:43.197Z,7.90
2023-03-17T18:06:13.242Z,6.60
2023-03-17T18:08:41.525Z,7.40
2023-03-17T18:11:09.590Z,7.10
2023-03-17T18:13:39.101Z,7.00
2023-03-17T18:16:10.099Z,6.40
2023-03-17T18:18:40.832Z,5.40
2023-03-17T18:21:09.835Z,5.30
2023-03-17T18:23:39.337Z,5.00
2023-03-17T18:26:07.511Z,5.60
2023-03-17T18:28:36.086Z,5.40
2023-03-17T18:31:10.581Z,5.40
2023-03-17T18:33:45.729Z,5.80
2023-03-17T18:36:14.333Z,7.30
2023-03-17T18:38:42.347Z,8.20
2023-03-17T18:41:11.216Z,8.60
2023-03-17T18:43:41.095Z,7.80
2023-03-17T18:46:09.131Z,10.30
2023-03-17T18:48:37.226Z,10.50
2023-03-17T18:51:05.733Z,14.90
2023-03-17T18:53:35.439Z,17.00
2023-03-17T18:56:03.545Z,17.40
2023-03-17T18:58:31.410Z,118.90
2023-03-17T19:01:01.552Z,368.60
2023-03-17T19:03:32.294Z,296.70
2023-03-17T19:06:13.844Z,230.60
2023-03-17T19:08:42.679Z,92.20
2023-03-17T19:11:13.685Z,102.60
2023-03-17T19:16:10.722Z,18.50
2023-03-17T19:18:41.928Z,19.20
2023-03-17T19:21:12.216Z,18.50
2023-03-17T19:23:41.437Z,18.70
2023-03-17T19:26:10.488Z,17.80
2023-03-17T19:28:38.471Z,17.00
2023-03-17T19:31:06.642Z,14.90
2023-03-17T19:33:35.191Z,17.90
2023-03-17T19:36:08.892Z,20.30
2023-03-17T19:38:37.430Z,20.40
2023-03-17T19:41:05.704Z,20.40
2023-03-17T19:43:40.760Z,20.30
2023-03-17T19:46:11.524Z,25.20
2023-03-17T19:48:40.483Z,25.50
2023-03-17T19:51:09.562Z,25.70
2023-03-17T19:53:37.648Z,24.70
2023-03-17T19:56:06.540Z,24.90
2023-03-17T19:58:34.663Z,24.20
2023-03-17T20:01:06.977Z,22.60
2023-03-17T20:03:39.048Z,21.90
2023-03-17T20:06:08.215Z,23.00
2023-03-17T20:08:36.462Z,23.50
2023-03-17T20:11:06.032Z,22.50
2023-03-17T20:13:35.413Z,20.90
2023-03-17T20:16:04.194Z,20.10
2023-03-17T20:18:32.373Z,18.70
2023-03-17T20:21:01.722Z,18.20
2023-03-17T20:23:29.804Z,19.90
2023-03-17T20:25:57.894Z,23.50
2023-03-17T20:28:25.991Z,30.80
2023-03-17T20:30:59.603Z,31.60
2023-03-17T20:33:27.917Z,28.70
2023-03-17T20:35:55.955Z,22.90
2023-03-17T20:38:23.996Z,21.10
2023-03-17T20:40:51.996Z,18.10
2023-03-17T20:43:19.992Z,16.80
2023-03-17T20:45:50.713Z,18.20
2023-03-17T20:50:50.042Z,16.20
2023-03-17T20:53:18.357Z,17.80
2023-03-17T20:55:47.241Z,17.70
2023-03-17T20:58:15.179Z,16.60
2023-03-17T21:00:43.339Z,16.40
2023-03-17T21:03:11.628Z,17.00
2023-03-17T21:05:39.598Z,22.00
2023-03-17T21:08:08.949Z,20.00
2023-03-17T21:10:37.077Z,19.20
2023-03-17T21:13:04.992Z,18.10
2023-03-17T21:15:33.093Z,16.90
2023-03-17T21:18:01.132Z,16.30
2023-03-17T21:20:29.553Z,18.20
2023-03-17T21:22:57.909Z,18.00
2023-03-17T21:25:26.719Z,18.60
2023-03-17T21:27:54.774Z,17.30
2023-03-17T21:30:22.663Z,17.70
2023-03-17T21:32:50.561Z,17.50
2023-03-17T21:35:18.639Z,17.80
2023-03-17T21:37:46.482Z,17.60
2023-03-17T21:40:15.763Z,18.50
2023-03-17T21:42:43.895Z,18.80
2023-03-17T21:45:12.565Z,19.50
2023-03-17T21:47:41.324Z,18.60
2023-03-17T21:50:09.622Z,20.70
2023-03-17T21:52:38.133Z,19.00
2023-03-17T21:55:08.203Z,20.00
2023-03-17T21:57:37.838Z,20.00
2023-03-17T22:00:08.332Z,17.60
2023-03-17T22:02:41.761Z,19.20
2023-03-17T22:05:10.579Z,19.90
2023-03-17T22:07:41.114Z,22.60
2023-03-17T22:10:13.420Z,27.40
2023-03-17T22:12:41.300Z,30.10
2023-03-17T22:15:12.604Z,28.20
2023-03-17T22:17:40.519Z,26.70
2023-03-17T22:20:10.621Z,25.30
2023-03-17T22:22:38.630Z,24.40
2023-03-17T22:25:07.171Z,20.50
2023-03-17T22:27:35.104Z,22.50
2023-03-17T22:30:03.920Z,23.10
2023-03-17T22:32:32.253Z,23.10
2023-03-17T22:35:00.288Z,22.90
2023-03-17T22:37:28.288Z,23.90
2023-03-17T22:40:02.287Z,22.50
2023-03-17T22:42:30.137Z,14.90
2023-03-17T22:44:58.744Z,13.70
2023-03-17T22:47:26.829Z,14.70
2023-03-17T22:49:54.763Z,14.10
2023-03-17T22:52:22.768Z,14.30
2023-03-17T22:54:50.707Z,13.50
2023-03-17T22:57:18.560Z,12.60
2023-03-17T22:59:46.641Z,11.80
2023-03-17T23:02:18.417Z,12.50
2023-03-17T23:04:46.755Z,13.10
2023-03-17T23:07:14.809Z,12.10
2023-03-17T23:09:45.304Z,13.40
2023-03-17T23:12:13.325Z,12.60
2023-03-17T23:14:41.214Z,11.80
2023-03-17T23:17:09.468Z,11.90
2023-03-17T23:19:37.353Z,11.70
2023-03-17T23:22:05.382Z,11.80
2023-03-17T23:24:33.455Z,12.00
2023-03-17T23:27:01.785Z,11.40
2023-03-17T23:29:29.738Z,14.40
2023-03-17T23:31:57.822Z,16.10
2023-03-17T23:34:25.899Z,12.40
2023-03-17T23:36:53.962Z,12.30
2023-03-17T23:39:21.833Z,11.80
2023-03-17T23:41:50.162Z,12.30
2023-03-17T23:44:18.130Z,12.90
2023-03-17T23:46:46.534Z,13.00
2023-03-17T23:49:14.597Z,11.60
2023-03-17T23:51:42.823Z,11.20
2023-03-17T23:54:10.810Z,11.30
2023-03-17T23:56:38.748Z,12.10
2023-03-17T23:59:08.164Z,12.00
